Swatara, Minnesota
Current Conditions -  °F | °C
As of 7:35 PM on Tuesday 21 Oct 2014 (Local Time) from KGPZ Reporting Station
Clear Clear  
Wind Chill: 39°   Ceiling: Unl
Heat Index: 45°   Visibility: 10mi
Dew Point: 34°   Wind: 10mph
Humidity: 66%   Direction: 130°SE
Pressure: 30.12"   Gusts: NA
Location:  46.9°N, 93.67°W
Report Text: KGPZ 220035Z AUTO 13009KT 10SM CLR 07/01 A3012 RMK AO1
Loading
Personal Weather Stations






























Interactive Weather Map
Tropical Storm Tracking
New forecast layout! Learn more

10-Day Weather Forecast

Advertisements
Track Severe Weather on mobile